createdAt,value
2022-12-23T00:01:05.660Z,79
2022-12-23T00:16:05.703Z,71
2022-12-23T00:31:04.868Z,85
2022-12-23T00:46:04.951Z,91
2022-12-23T01:01:05.048Z,93
2022-12-23T01:16:06.777Z,99
2022-12-23T01:31:05.782Z,90
2022-12-23T01:46:06.051Z,93
2022-12-23T02:01:05.422Z,75
2022-12-23T02:16:04.908Z,70
2022-12-23T02:31:05.523Z,81
2022-12-23T02:46:05.800Z,79
2022-12-23T03:01:05.997Z,74
2022-12-23T03:16:05.729Z,74
2022-12-23T03:31:05.793Z,83
2022-12-23T03:46:05.301Z,67
2022-12-23T04:01:05.300Z,74
2022-12-23T04:16:05.129Z,67
2022-12-23T04:31:04.974Z,58
2022-12-23T04:46:04.833Z,70
2022-12-23T05:01:05.203Z,55
2022-12-23T05:16:05.497Z,58
2022-12-23T05:31:05.523Z,67
2022-12-23T05:46:05.898Z,62
2022-12-23T06:01:05.158Z,38
2022-12-23T06:16:05.971Z,31
2022-12-23T06:31:04.938Z,32
2022-12-23T06:46:05.604Z,45
2022-12-23T07:01:05.206Z,67
2022-12-23T07:16:05.205Z,60
2022-12-23T07:31:05.052Z,58
2022-12-23T07:46:04.968Z,57
2022-12-23T08:01:04.944Z,53
2022-12-23T08:16:05.937Z,53
2022-12-23T08:31:05.534Z,50
2022-12-23T08:46:05.520Z,45
2022-12-23T09:01:06.042Z,50
2022-12-23T09:16:05.534Z,53
2022-12-23T09:31:05.613Z,53
2022-12-23T09:46:05.426Z,52
2022-12-23T10:01:05.645Z,45
2022-12-23T10:16:05.389Z,29
2022-12-23T10:31:40.547Z,33
2022-12-23T10:46:05.564Z,33
2022-12-23T11:01:18.785Z,40
2022-12-23T11:16:04.748Z,58
2022-12-23T11:31:05.046Z,59
2022-12-23T11:46:05.550Z,57
2022-12-23T12:01:05.152Z,52
2022-12-23T12:16:05.361Z,54
2022-12-23T12:31:05.491Z,56
2022-12-23T12:46:05.220Z,47
2022-12-23T13:01:05.258Z,46
2022-12-23T13:16:05.596Z,45
2022-12-23T13:31:05.389Z,46
2022-12-23T13:46:05.648Z,48
2022-12-23T14:01:05.209Z,58
2022-12-23T14:16:04.872Z,69
2022-12-23T14:31:05.756Z,74
2022-12-23T14:46:05.508Z,64
2022-12-23T15:01:05.046Z,54
2022-12-23T15:16:04.857Z,79
2022-12-23T15:31:05.104Z,86
2022-12-23T15:46:05.813Z,83
2022-12-23T16:01:05.222Z,86
2022-12-23T16:16:05.545Z,84
2022-12-23T16:31:05.559Z,93
2022-12-23T16:46:05.048Z,90
2022-12-23T17:01:05.756Z,74
2022-12-23T17:16:05.624Z,81
2022-12-23T17:31:15.463Z,88
2022-12-23T17:46:04.981Z,89
2022-12-23T18:01:04.988Z,78
2022-12-23T18:16:05.492Z,88
2022-12-23T18:31:05.960Z,75
2022-12-23T18:46:04.934Z,70
2022-12-23T19:01:04.935Z,61
2022-12-23T19:16:05.351Z,63
2022-12-23T19:31:04.778Z,73
2022-12-23T19:46:05.796Z,72
2022-12-23T20:01:05.995Z,83
2022-12-23T20:16:05.555Z,66
2022-12-23T20:31:05.501Z,55
2022-12-23T20:46:05.178Z,59
2022-12-23T21:01:05.515Z,56
2022-12-23T21:16:05.003Z,55
2022-12-23T21:31:05.964Z,45
2022-12-23T21:46:05.014Z,38
2022-12-23T22:01:04.879Z,36
2022-12-23T22:16:05.510Z,38
2022-12-23T22:31:05.577Z,37
2022-12-23T22:46:05.393Z,44
2022-12-23T23:01:05.845Z,44
2022-12-23T23:16:05.778Z,47
2022-12-23T23:31:42.684Z,33
2022-12-23T23:46:05.697Z,26
